sensor_id;sensor_type;location;lat;lon;timestamp;P1;durP1;ratioP1;P2;durP2;ratioP2
28296;SDS011;62078;49.366;8.172;2023-05-17T00:02:10;2.35;;;0.60;;
28296;SDS011;62078;49.366;8.172;2023-05-17T00:04:36;2.90;;;0.90;;
28296;SDS011;62078;49.366;8.172;2023-05-17T00:07:01;5.18;;;0.85;;
28296;SDS011;62078;49.366;8.172;2023-05-17T00:09:27;3.20;;;0.85;;
28296;SDS011;62078;49.366;8.172;2023-05-17T00:11:53;2.50;;;1.00;;
28296;SDS011;62078;49.366;8.172;2023-05-17T00:14:18;4.05;;;0.90;;
28296;SDS011;62078;49.366;8.172;2023-05-17T00:16:44;5.45;;;1.23;;
28296;SDS011;62078;49.366;8.172;2023-05-17T00:19:10;4.30;;;0.88;;
28296;SDS011;62078;49.366;8.172;2023-05-17T00:21:35;2.22;;;0.80;;
28296;SDS011;62078;49.366;8.172;2023-05-17T00:24:02;3.00;;;0.85;;
28296;SDS011;62078;49.366;8.172;2023-05-17T00:26:27;4.28;;;1.20;;
28296;SDS011;62078;49.366;8.172;2023-05-17T00:28:53;3.65;;;0.88;;
28296;SDS011;62078;49.366;8.172;2023-05-17T00:31:19;7.28;;;1.10;;
28296;SDS011;62078;49.366;8.172;2023-05-17T00:33:44;5.22;;;1.23;;
28296;SDS011;62078;49.366;8.172;2023-05-17T00:36:11;3.72;;;0.90;;
28296;SDS011;62078;49.366;8.172;2023-05-17T00:38:37;3.47;;;1.05;;
28296;SDS011;62078;49.366;8.172;2023-05-17T00:41:03;2.28;;;0.90;;
28296;SDS011;62078;49.366;8.172;2023-05-17T00:43:28;2.65;;;0.88;;
28296;SDS011;62078;49.366;8.172;2023-05-17T00:45:54;5.10;;;0.70;;
28296;SDS011;62078;49.366;8.172;2023-05-17T00:48:20;2.42;;;0.75;;
28296;SDS011;62078;49.366;8.172;2023-05-17T00:50:49;3.65;;;0.60;;
28296;SDS011;62078;49.366;8.172;2023-05-17T00:53:16;4.88;;;1.52;;
28296;SDS011;62078;49.366;8.172;2023-05-17T00:55:42;3.38;;;1.00;;
28296;SDS011;62078;49.366;8.172;2023-05-17T00:58:12;2.92;;;0.88;;
28296;SDS011;62078;49.366;8.172;2023-05-17T01:00:38;2.42;;;0.70;;
28296;SDS011;62078;49.366;8.172;2023-05-17T01:03:05;3.28;;;0.90;;
28296;SDS011;62078;49.366;8.172;2023-05-17T01:05:30;3.35;;;0.70;;
28296;SDS011;62078;49.366;8.172;2023-05-17T01:07:56;2.50;;;0.90;;
28296;SDS011;62078;49.366;8.172;2023-05-17T01:10:27;6.40;;;1.20;;
28296;SDS011;62078;49.366;8.172;2023-05-17T01:13:04;3.90;;;0.90;;
28296;SDS011;62078;49.366;8.172;2023-05-17T01:15:35;3.15;;;0.70;;
28296;SDS011;62078;49.366;8.172;2023-05-17T01:18:11;4.43;;;1.00;;
28296;SDS011;62078;49.366;8.172;2023-05-17T01:20:46;6.07;;;1.45;;
28296;SDS011;62078;49.366;8.172;2023-05-17T01:26:18;4.13;;;1.20;;
28296;SDS011;62078;49.366;8.172;2023-05-17T01:28:51;6.60;;;1.20;;
28296;SDS011;62078;49.366;8.172;2023-05-17T01:31:19;6.50;;;1.10;;
28296;SDS011;62078;49.366;8.172;2023-05-17T01:33:45;2.03;;;0.85;;
28296;SDS011;62078;49.366;8.172;2023-05-17T01:36:11;7.50;;;1.05;;
28296;SDS011;62078;49.366;8.172;2023-05-17T01:38:37;7.10;;;1.20;;
28296;SDS011;62078;49.366;8.172;2023-05-17T01:41:17;4.95;;;1.27;;
28296;SDS011;62078;49.366;8.172;2023-05-17T01:46:32;5.30;;;1.27;;
28296;SDS011;62078;49.366;8.172;2023-05-17T01:49:09;4.90;;;1.25;;
28296;SDS011;62078;49.366;8.172;2023-05-17T01:52:04;5.32;;;1.10;;
28296;SDS011;62078;49.366;8.172;2023-05-17T01:54:37;3.97;;;1.20;;
28296;SDS011;62078;49.366;8.172;2023-05-17T01:57:15;4.38;;;1.27;;
28296;SDS011;62078;49.366;8.172;2023-05-17T01:59:48;6.78;;;1.48;;
28296;SDS011;62078;49.366;8.172;2023-05-17T02:02:16;5.22;;;0.90;;
28296;SDS011;62078;49.366;8.172;2023-05-17T02:04:42;5.40;;;1.30;;
28296;SDS011;62078;49.366;8.172;2023-05-17T02:07:08;2.92;;;0.93;;
28296;SDS011;62078;49.366;8.172;2023-05-17T02:09:33;4.78;;;1.27;;
28296;SDS011;62078;49.366;8.172;2023-05-17T02:11:59;4.32;;;1.00;;
28296;SDS011;62078;49.366;8.172;2023-05-17T02:14:25;4.80;;;1.45;;
28296;SDS011;62078;49.366;8.172;2023-05-17T02:16:51;7.25;;;1.50;;
28296;SDS011;62078;49.366;8.172;2023-05-17T02:19:16;4.95;;;1.25;;
28296;SDS011;62078;49.366;8.172;2023-05-17T02:21:42;3.30;;;1.00;;
28296;SDS011;62078;49.366;8.172;2023-05-17T02:24:07;6.63;;;1.45;;
28296;SDS011;62078;49.366;8.172;2023-05-17T02:26:33;3.78;;;1.02;;
28296;SDS011;62078;49.366;8.172;2023-05-17T02:28:59;5.45;;;1.48;;
28296;SDS011;62078;49.366;8.172;2023-05-17T02:31:25;7.25;;;1.60;;
28296;SDS011;62078;49.366;8.172;2023-05-17T02:33:54;8.65;;;1.48;;
28296;SDS011;62078;49.366;8.172;2023-05-17T02:36:20;3.55;;;0.85;;
28296;SDS011;62078;49.366;8.172;2023-05-17T02:38:45;7.28;;;1.52;;
28296;SDS011;62078;49.366;8.172;2023-05-17T02:41:11;6.60;;;1.10;;
28296;SDS011;62078;49.366;8.172;2023-05-17T02:43:37;8.15;;;1.30;;
28296;SDS011;62078;49.366;8.172;2023-05-17T02:46:03;5.43;;;1.60;;
28296;SDS011;62078;49.366;8.172;2023-05-17T02:48:28;5.30;;;1.00;;
28296;SDS011;62078;49.366;8.172;2023-05-17T02:50:54;5.10;;;1.30;;
28296;SDS011;62078;49.366;8.172;2023-05-17T02:53:20;7.45;;;1.70;;
28296;SDS011;62078;49.366;8.172;2023-05-17T02:55:46;7.05;;;2.00;;
28296;SDS011;62078;49.366;8.172;2023-05-17T02:58:11;3.53;;;1.17;;
28296;SDS011;62078;49.366;8.172;2023-05-17T03:00:37;4.18;;;1.42;;
28296;SDS011;62078;49.366;8.172;2023-05-17T03:03:03;8.60;;;1.13;;
28296;SDS011;62078;49.366;8.172;2023-05-17T03:05:28;4.68;;;1.15;;
28296;SDS011;62078;49.366;8.172;2023-05-17T03:07:54;13.57;;;1.38;;
28296;SDS011;62078;49.366;8.172;2023-05-17T03:10:20;6.40;;;1.30;;
28296;SDS011;62078;49.366;8.172;2023-05-17T03:12:46;4.18;;;1.27;;
28296;SDS011;62078;49.366;8.172;2023-05-17T03:15:11;9.07;;;1.98;;
28296;SDS011;62078;49.366;8.172;2023-05-17T03:17:37;8.35;;;1.30;;
28296;SDS011;62078;49.366;8.172;2023-05-17T03:20:03;5.28;;;1.20;;
28296;SDS011;62078;49.366;8.172;2023-05-17T03:22:31;6.03;;;1.17;;
28296;SDS011;62078;49.366;8.172;2023-05-17T03:24:57;7.32;;;1.40;;
28296;SDS011;62078;49.366;8.172;2023-05-17T03:27:23;4.00;;;0.98;;
28296;SDS011;62078;49.366;8.172;2023-05-17T03:29:49;7.38;;;1.38;;
28296;SDS011;62078;49.366;8.172;2023-05-17T03:32:14;4.47;;;1.10;;
28296;SDS011;62078;49.366;8.172;2023-05-17T03:34:40;2.53;;;1.10;;
28296;SDS011;62078;49.366;8.172;2023-05-17T03:37:05;7.00;;;1.50;;
28296;SDS011;62078;49.366;8.172;2023-05-17T03:39:32;5.93;;;1.27;;
28296;SDS011;62078;49.366;8.172;2023-05-17T03:41:58;5.00;;;1.30;;
28296;SDS011;62078;49.366;8.172;2023-05-17T03:44:23;4.45;;;1.20;;
28296;SDS011;62078;49.366;8.172;2023-05-17T03:46:49;4.93;;;1.13;;
28296;SDS011;62078;49.366;8.172;2023-05-17T03:49:15;6.78;;;1.10;;
28296;SDS011;62078;49.366;8.172;2023-05-17T03:51:40;7.07;;;1.08;;
28296;SDS011;62078;49.366;8.172;2023-05-17T03:54:06;5.60;;;1.33;;
28296;SDS011;62078;49.366;8.172;2023-05-17T03:56:32;7.93;;;1.30;;
28296;SDS011;62078;49.366;8.172;2023-05-17T03:58:57;5.82;;;1.40;;
28296;SDS011;62078;49.366;8.172;2023-05-17T04:01:23;8.35;;;1.50;;
28296;SDS011;62078;49.366;8.172;2023-05-17T04:03:48;5.25;;;1.15;;
28296;SDS011;62078;49.366;8.172;2023-05-17T04:06:14;7.05;;;1.67;;
28296;SDS011;62078;49.366;8.172;2023-05-17T04:08:40;6.97;;;1.63;;
28296;SDS011;62078;49.366;8.172;2023-05-17T04:11:06;7.47;;;1.73;;
28296;SDS011;62078;49.366;8.172;2023-05-17T04:13:36;7.38;;;1.67;;
28296;SDS011;62078;49.366;8.172;2023-05-17T04:16:02;8.10;;;1.67;;
28296;SDS011;62078;49.366;8.172;2023-05-17T04:18:28;9.50;;;1.85;;
28296;SDS011;62078;49.366;8.172;2023-05-17T04:20:54;7.25;;;1.60;;
28296;SDS011;62078;49.366;8.172;2023-05-17T04:23:20;8.68;;;1.50;;
28296;SDS011;62078;49.366;8.172;2023-05-17T04:25:45;6.50;;;1.30;;
28296;SDS011;62078;49.366;8.172;2023-05-17T04:28:11;8.02;;;1.85;;
28296;SDS011;62078;49.366;8.172;2023-05-17T04:30:44;7.70;;;1.77;;
28296;SDS011;62078;49.366;8.172;2023-05-17T04:33:11;6.68;;;1.30;;
28296;SDS011;62078;49.366;8.172;2023-05-17T04:35:37;8.43;;;1.73;;
28296;SDS011;62078;49.366;8.172;2023-05-17T04:38:05;8.60;;;1.85;;
28296;SDS011;62078;49.366;8.172;2023-05-17T04:40:31;6.15;;;1.52;;
28296;SDS011;62078;49.366;8.172;2023-05-17T04:42:57;11.38;;;2.00;;
28296;SDS011;62078;49.366;8.172;2023-05-17T04:45:23;7.85;;;1.42;;
28296;SDS011;62078;49.366;8.172;2023-05-17T04:47:49;5.93;;;1.88;;
28296;SDS011;62078;49.366;8.172;2023-05-17T04:50:15;4.93;;;1.42;;
28296;SDS011;62078;49.366;8.172;2023-05-17T04:52:41;3.58;;;1.40;;
28296;SDS011;62078;49.366;8.172;2023-05-17T04:55:07;5.25;;;1.60;;
28296;SDS011;62078;49.366;8.172;2023-05-17T04:57:33;3.85;;;1.00;;
28296;SDS011;62078;49.366;8.172;2023-05-17T05:00:00;3.67;;;1.10;;
28296;SDS011;62078;49.366;8.172;2023-05-17T05:02:27;6.68;;;1.50;;
28296;SDS011;62078;49.366;8.172;2023-05-17T05:04:52;5.95;;;1.95;;
28296;SDS011;62078;49.366;8.172;2023-05-17T05:07:18;8.45;;;1.77;;
28296;SDS011;62078;49.366;8.172;2023-05-17T05:09:44;4.82;;;1.27;;
28296;SDS011;62078;49.366;8.172;2023-05-17T05:12:09;4.63;;;1.65;;
28296;SDS011;62078;49.366;8.172;2023-05-17T05:14:35;5.50;;;1.58;;
28296;SDS011;62078;49.366;8.172;2023-05-17T05:17:01;6.07;;;1.67;;
28296;SDS011;62078;49.366;8.172;2023-05-17T05:19:26;6.72;;;1.77;;
28296;SDS011;62078;49.366;8.172;2023-05-17T05:21:52;4.07;;;1.38;;
28296;SDS011;62078;49.366;8.172;2023-05-17T05:24:17;5.05;;;1.35;;
28296;SDS011;62078;49.366;8.172;2023-05-17T05:26:43;6.15;;;1.92;;
28296;SDS011;62078;49.366;8.172;2023-05-17T05:29:10;4.35;;;1.80;;
28296;SDS011;62078;49.366;8.172;2023-05-17T05:31:36;9.10;;;1.77;;
28296;SDS011;62078;49.366;8.172;2023-05-17T05:34:01;5.50;;;1.80;;
28296;SDS011;62078;49.366;8.172;2023-05-17T05:36:27;5.78;;;2.42;;
28296;SDS011;62078;49.366;8.172;2023-05-17T05:38:52;6.43;;;1.88;;
28296;SDS011;62078;49.366;8.172;2023-05-17T05:41:18;7.13;;;1.60;;
28296;SDS011;62078;49.366;8.172;2023-05-17T05:43:44;5.35;;;1.30;;
28296;SDS011;62078;49.366;8.172;2023-05-17T05:46:10;9.55;;;2.55;;
28296;SDS011;62078;49.366;8.172;2023-05-17T05:48:36;9.18;;;2.33;;
28296;SDS011;62078;49.366;8.172;2023-05-17T05:51:05;13.43;;;2.70;;
28296;SDS011;62078;49.366;8.172;2023-05-17T05:53:31;12.82;;;2.28;;
28296;SDS011;62078;49.366;8.172;2023-05-17T05:55:57;11.70;;;2.45;;
28296;SDS011;62078;49.366;8.172;2023-05-17T05:58:23;10.55;;;2.20;;
28296;SDS011;62078;49.366;8.172;2023-05-17T06:00:48;9.43;;;2.25;;
28296;SDS011;62078;49.366;8.172;2023-05-17T06:03:14;13.35;;;2.70;;
28296;SDS011;62078;49.366;8.172;2023-05-17T06:05:40;6.45;;;2.58;;
28296;SDS011;62078;49.366;8.172;2023-05-17T06:08:06;9.07;;;2.20;;
28296;SDS011;62078;49.366;8.172;2023-05-17T06:10:32;7.55;;;2.55;;
28296;SDS011;62078;49.366;8.172;2023-05-17T06:12:57;7.60;;;2.47;;
28296;SDS011;62078;49.366;8.172;2023-05-17T06:15:23;8.40;;;2.40;;
28296;SDS011;62078;49.366;8.172;2023-05-17T06:17:50;7.75;;;1.98;;
28296;SDS011;62078;49.366;8.172;2023-05-17T06:20:16;8.52;;;2.60;;
28296;SDS011;62078;49.366;8.172;2023-05-17T06:22:42;14.10;;;2.60;;
28296;SDS011;62078;49.366;8.172;2023-05-17T06:25:08;8.55;;;2.72;;
28296;SDS011;62078;49.366;8.172;2023-05-17T06:27:35;10.13;;;2.03;;
28296;SDS011;62078;49.366;8.172;2023-05-17T06:30:01;6.30;;;2.15;;
28296;SDS011;62078;49.366;8.172;2023-05-17T06:32:28;14.35;;;4.35;;
28296;SDS011;62078;49.366;8.172;2023-05-17T06:34:54;8.88;;;3.05;;
28296;SDS011;62078;49.366;8.172;2023-05-17T06:37:21;11.20;;;2.33;;
28296;SDS011;62078;49.366;8.172;2023-05-17T06:39:46;10.90;;;2.28;;
28296;SDS011;62078;49.366;8.172;2023-05-17T06:42:14;7.95;;;2.15;;
28296;SDS011;62078;49.366;8.172;2023-05-17T06:44:40;8.52;;;1.95;;
28296;SDS011;62078;49.366;8.172;2023-05-17T06:47:06;8.20;;;2.50;;
28296;SDS011;62078;49.366;8.172;2023-05-17T06:49:31;6.38;;;2.25;;
28296;SDS011;62078;49.366;8.172;2023-05-17T06:51:57;5.35;;;2.30;;
28296;SDS011;62078;49.366;8.172;2023-05-17T06:54:27;5.30;;;2.03;;
28296;SDS011;62078;49.366;8.172;2023-05-17T06:56:54;9.20;;;2.10;;
28296;SDS011;62078;49.366;8.172;2023-05-17T06:59:23;7.00;;;2.05;;
28296;SDS011;62078;49.366;8.172;2023-05-17T07:01:49;8.32;;;1.80;;
28296;SDS011;62078;49.366;8.172;2023-05-17T07:04:14;5.50;;;1.67;;
28296;SDS011;62078;49.366;8.172;2023-05-17T07:06:40;8.32;;;2.00;;
28296;SDS011;62078;49.366;8.172;2023-05-17T07:09:05;6.25;;;2.15;;
28296;SDS011;62078;49.366;8.172;2023-05-17T07:11:32;8.65;;;2.22;;
28296;SDS011;62078;49.366;8.172;2023-05-17T07:13:57;7.88;;;1.90;;
28296;SDS011;62078;49.366;8.172;2023-05-17T07:16:23;9.77;;;2.10;;
28296;SDS011;62078;49.366;8.172;2023-05-17T07:18:48;7.28;;;1.80;;
28296;SDS011;62078;49.366;8.172;2023-05-17T07:21:14;5.93;;;2.05;;
28296;SDS011;62078;49.366;8.172;2023-05-17T07:23:40;6.85;;;1.70;;
28296;SDS011;62078;49.366;8.172;2023-05-17T07:26:05;8.30;;;1.73;;
28296;SDS011;62078;49.366;8.172;2023-05-17T07:28:31;4.97;;;1.83;;
28296;SDS011;62078;49.366;8.172;2023-05-17T07:30:57;4.15;;;1.45;;
28296;SDS011;62078;49.366;8.172;2023-05-17T07:33:22;9.20;;;1.95;;
28296;SDS011;62078;49.366;8.172;2023-05-17T07:35:48;5.53;;;1.88;;
28296;SDS011;62078;49.366;8.172;2023-05-17T07:38:14;5.13;;;1.67;;
28296;SDS011;62078;49.366;8.172;2023-05-17T07:40:39;4.72;;;1.90;;
28296;SDS011;62078;49.366;8.172;2023-05-17T07:43:05;3.83;;;1.38;;
28296;SDS011;62078;49.366;8.172;2023-05-17T07:45:31;6.50;;;2.25;;
28296;SDS011;62078;49.366;8.172;2023-05-17T07:47:56;4.88;;;1.55;;
28296;SDS011;62078;49.366;8.172;2023-05-17T07:50:22;5.50;;;1.80;;
28296;SDS011;62078;49.366;8.172;2023-05-17T07:52:48;4.82;;;1.83;;
28296;SDS011;62078;49.366;8.172;2023-05-17T07:55:13;6.45;;;1.95;;
28296;SDS011;62078;49.366;8.172;2023-05-17T07:57:39;4.85;;;1.55;;
28296;SDS011;62078;49.366;8.172;2023-05-17T08:00:05;5.13;;;2.30;;
28296;SDS011;62078;49.366;8.172;2023-05-17T08:02:32;7.45;;;2.20;;
28296;SDS011;62078;49.366;8.172;2023-05-17T08:04:58;4.22;;;1.67;;
28296;SDS011;62078;49.366;8.172;2023-05-17T08:07:24;4.43;;;1.70;;
28296;SDS011;62078;49.366;8.172;2023-05-17T08:09:49;5.28;;;2.25;;
28296;SDS011;62078;49.366;8.172;2023-05-17T08:12:15;3.80;;;1.58;;
28296;SDS011;62078;49.366;8.172;2023-05-17T08:14:41;3.70;;;1.58;;
28296;SDS011;62078;49.366;8.172;2023-05-17T08:17:06;4.82;;;1.63;;
28296;SDS011;62078;49.366;8.172;2023-05-17T08:19:32;3.85;;;1.52;;
28296;SDS011;62078;49.366;8.172;2023-05-17T08:21:58;5.55;;;1.75;;
28296;SDS011;62078;49.366;8.172;2023-05-17T08:24:23;4.45;;;1.70;;
28296;SDS011;62078;49.366;8.172;2023-05-17T08:26:49;4.70;;;1.67;;
28296;SDS011;62078;49.366;8.172;2023-05-17T08:29:15;5.78;;;1.70;;
28296;SDS011;62078;49.366;8.172;2023-05-17T08:31:41;8.10;;;2.15;;
28296;SDS011;62078;49.366;8.172;2023-05-17T08:34:06;6.03;;;2.20;;
28296;SDS011;62078;49.366;8.172;2023-05-17T08:36:32;6.28;;;2.05;;
28296;SDS011;62078;49.366;8.172;2023-05-17T08:38:58;4.82;;;2.03;;
28296;SDS011;62078;49.366;8.172;2023-05-17T08:41:24;11.27;;;3.58;;
28296;SDS011;62078;49.366;8.172;2023-05-17T08:43:50;10.65;;;3.53;;
28296;SDS011;62078;49.366;8.172;2023-05-17T08:46:17;13.55;;;4.50;;
28296;SDS011;62078;49.366;8.172;2023-05-17T08:48:45;14.35;;;4.43;;
28296;SDS011;62078;49.366;8.172;2023-05-17T08:51:16;12.25;;;3.65;;
28296;SDS011;62078;49.366;8.172;2023-05-17T08:53:44;9.05;;;2.63;;
28296;SDS011;62078;49.366;8.172;2023-05-17T08:56:11;8.73;;;3.53;;
28296;SDS011;62078;49.366;8.172;2023-05-17T08:58:40;9.25;;;2.78;;
28296;SDS011;62078;49.366;8.172;2023-05-17T09:01:07;10.57;;;3.08;;
28296;SDS011;62078;49.366;8.172;2023-05-17T09:03:34;7.55;;;2.55;;
28296;SDS011;62078;49.366;8.172;2023-05-17T09:06:04;7.18;;;2.55;;
28296;SDS011;62078;49.366;8.172;2023-05-17T09:08:30;8.50;;;2.88;;
28296;SDS011;62078;49.366;8.172;2023-05-17T09:10:56;9.90;;;3.10;;
28296;SDS011;62078;49.366;8.172;2023-05-17T09:13:23;9.25;;;3.22;;
28296;SDS011;62078;49.366;8.172;2023-05-17T09:15:50;8.93;;;2.85;;
28296;SDS011;62078;49.366;8.172;2023-05-17T09:18:15;9.60;;;3.17;;
28296;SDS011;62078;49.366;8.172;2023-05-17T09:20:41;7.35;;;2.72;;
28296;SDS011;62078;49.366;8.172;2023-05-17T09:23:13;5.70;;;2.38;;
28296;SDS011;62078;49.366;8.172;2023-05-17T09:25:46;6.45;;;2.15;;
28296;SDS011;62078;49.366;8.172;2023-05-17T09:28:13;9.50;;;2.92;;
28296;SDS011;62078;49.366;8.172;2023-05-17T09:30:38;14.95;;;3.90;;
28296;SDS011;62078;49.366;8.172;2023-05-17T09:33:06;7.97;;;2.70;;
28296;SDS011;62078;49.366;8.172;2023-05-17T09:35:34;10.60;;;2.70;;
28296;SDS011;62078;49.366;8.172;2023-05-17T09:38:12;7.68;;;2.72;;
28296;SDS011;62078;49.366;8.172;2023-05-17T09:40:39;6.40;;;2.30;;
28296;SDS011;62078;49.366;8.172;2023-05-17T09:43:06;6.22;;;2.30;;
28296;SDS011;62078;49.366;8.172;2023-05-17T09:45:33;6.75;;;2.42;;
28296;SDS011;62078;49.366;8.172;2023-05-17T09:48:18;6.72;;;2.58;;
28296;SDS011;62078;49.366;8.172;2023-05-17T09:50:49;8.27;;;2.90;;
28296;SDS011;62078;49.366;8.172;2023-05-17T09:53:26;9.52;;;2.95;;
28296;SDS011;62078;49.366;8.172;2023-05-17T09:56:06;10.52;;;2.33;;
28296;SDS011;62078;49.366;8.172;2023-05-17T09:58:37;10.45;;;2.78;;
28296;SDS011;62078;49.366;8.172;2023-05-17T10:01:04;9.27;;;2.72;;
28296;SDS011;62078;49.366;8.172;2023-05-17T10:05:58;8.38;;;2.83;;
28296;SDS011;62078;49.366;8.172;2023-05-17T10:08:32;8.32;;;2.60;;
28296;SDS011;62078;49.366;8.172;2023-05-17T10:11:03;7.50;;;2.95;;
28296;SDS011;62078;49.366;8.172;2023-05-17T10:13:36;8.80;;;2.97;;
28296;SDS011;62078;49.366;8.172;2023-05-17T10:16:11;9.95;;;2.72;;
28296;SDS011;62078;49.366;8.172;2023-05-17T10:18:37;10.77;;;2.95;;
28296;SDS011;62078;49.366;8.172;2023-05-17T10:21:05;6.22;;;2.17;;
28296;SDS011;62078;49.366;8.172;2023-05-17T10:23:31;7.88;;;2.78;;
28296;SDS011;62078;49.366;8.172;2023-05-17T10:25:58;7.13;;;2.42;;
28296;SDS011;62078;49.366;8.172;2023-05-17T10:28:25;8.27;;;2.95;;
28296;SDS011;62078;49.366;8.172;2023-05-17T10:30:52;6.40;;;2.35;;
28296;SDS011;62078;49.366;8.172;2023-05-17T10:33:19;6.55;;;2.85;;
28296;SDS011;62078;49.366;8.172;2023-05-17T10:35:46;5.65;;;2.08;;
28296;SDS011;62078;49.366;8.172;2023-05-17T10:38:13;6.18;;;2.60;;
28296;SDS011;62078;49.366;8.172;2023-05-17T10:40:39;6.88;;;2.28;;
28296;SDS011;62078;49.366;8.172;2023-05-17T10:43:06;10.35;;;3.45;;
28296;SDS011;62078;49.366;8.172;2023-05-17T10:45:35;7.57;;;2.35;;
28296;SDS011;62078;49.366;8.172;2023-05-17T10:48:05;9.32;;;2.92;;
28296;SDS011;62078;49.366;8.172;2023-05-17T10:50:32;7.05;;;2.90;;
28296;SDS011;62078;49.366;8.172;2023-05-17T10:53:01;13.80;;;3.33;;
28296;SDS011;62078;49.366;8.172;2023-05-17T10:55:42;14.63;;;2.88;;
28296;SDS011;62078;49.366;8.172;2023-05-17T10:58:19;9.85;;;2.45;;
28296;SDS011;62078;49.366;8.172;2023-05-17T11:00:49;8.25;;;2.22;;
28296;SDS011;62078;49.366;8.172;2023-05-17T11:03:26;7.20;;;2.30;;
28296;SDS011;62078;49.366;8.172;2023-05-17T11:08:35;8.10;;;2.53;;
28296;SDS011;62078;49.366;8.172;2023-05-17T11:11:11;8.52;;;3.15;;
28296;SDS011;62078;49.366;8.172;2023-05-17T11:16:16;8.32;;;2.58;;
28296;SDS011;62078;49.366;8.172;2023-05-17T11:18:45;9.10;;;2.67;;
28296;SDS011;62078;49.366;8.172;2023-05-17T11:21:14;6.47;;;2.58;;
28296;SDS011;62078;49.366;8.172;2023-05-17T11:23:41;6.15;;;2.45;;
28296;SDS011;62078;49.366;8.172;2023-05-17T11:26:15;7.57;;;2.90;;
28296;SDS011;62078;49.366;8.172;2023-05-17T11:28:42;7.70;;;2.60;;
28296;SDS011;62078;49.366;8.172;2023-05-17T11:31:08;6.38;;;1.90;;
28296;SDS011;62078;49.366;8.172;2023-05-17T11:33:43;7.20;;;2.45;;
28296;SDS011;62078;49.366;8.172;2023-05-17T11:39:12;5.82;;;2.25;;
28296;SDS011;62078;49.366;8.172;2023-05-17T11:41:39;5.72;;;2.38;;
28296;SDS011;62078;49.366;8.172;2023-05-17T11:44:28;9.82;;;2.78;;
28296;SDS011;62078;49.366;8.172;2023-05-17T11:47:01;6.18;;;2.40;;
28296;SDS011;62078;49.366;8.172;2023-05-17T11:49:37;5.93;;;2.60;;
28296;SDS011;62078;49.366;8.172;2023-05-17T11:52:04;8.10;;;2.58;;
28296;SDS011;62078;49.366;8.172;2023-05-17T11:54:31;6.85;;;2.67;;
28296;SDS011;62078;49.366;8.172;2023-05-17T11:56:57;7.90;;;2.97;;
28296;SDS011;62078;49.366;8.172;2023-05-17T11:59:24;5.07;;;2.50;;
28296;SDS011;62078;49.366;8.172;2023-05-17T12:01:50;5.05;;;2.17;;
28296;SDS011;62078;49.366;8.172;2023-05-17T12:04:25;8.82;;;2.20;;
28296;SDS011;62078;49.366;8.172;2023-05-17T12:09:18;8.55;;;2.10;;
28296;SDS011;62078;49.366;8.172;2023-05-17T12:11:45;9.40;;;2.33;;
28296;SDS011;62078;49.366;8.172;2023-05-17T12:14:15;6.68;;;2.20;;
28296;SDS011;62078;49.366;8.172;2023-05-17T12:16:41;5.72;;;2.20;;
28296;SDS011;62078;49.366;8.172;2023-05-17T12:19:18;4.65;;;2.17;;
28296;SDS011;62078;49.366;8.172;2023-05-17T12:21:46;4.53;;;2.10;;
28296;SDS011;62078;49.366;8.172;2023-05-17T12:24:12;6.18;;;2.47;;
28296;SDS011;62078;49.366;8.172;2023-05-17T12:26:41;6.80;;;2.13;;
28296;SDS011;62078;49.366;8.172;2023-05-17T12:29:11;6.28;;;2.53;;
28296;SDS011;62078;49.366;8.172;2023-05-17T12:31:42;6.95;;;2.22;;
28296;SDS011;62078;49.366;8.172;2023-05-17T12:34:12;4.50;;;2.08;;
28296;SDS011;62078;49.366;8.172;2023-05-17T12:36:38;6.13;;;2.00;;
28296;SDS011;62078;49.366;8.172;2023-05-17T12:39:04;4.88;;;2.08;;
28296;SDS011;62078;49.366;8.172;2023-05-17T12:41:33;6.25;;;2.35;;
28296;SDS011;62078;49.366;8.172;2023-05-17T12:44:00;8.50;;;2.45;;
28296;SDS011;62078;49.366;8.172;2023-05-17T12:46:26;8.23;;;2.60;;
28296;SDS011;62078;49.366;8.172;2023-05-17T12:48:52;6.63;;;2.28;;
28296;SDS011;62078;49.366;8.172;2023-05-17T12:51:22;5.72;;;2.40;;
28296;SDS011;62078;49.366;8.172;2023-05-17T12:56:19;7.28;;;2.58;;
28296;SDS011;62078;49.366;8.172;2023-05-17T13:01:43;7.22;;;2.58;;
28296;SDS011;62078;49.366;8.172;2023-05-17T13:04:14;6.95;;;2.45;;
28296;SDS011;62078;49.366;8.172;2023-05-17T13:09:13;5.63;;;2.22;;
28296;SDS011;62078;49.366;8.172;2023-05-17T13:11:49;5.15;;;2.33;;
28296;SDS011;62078;49.366;8.172;2023-05-17T13:17:16;5.50;;;2.10;;
28296;SDS011;62078;49.366;8.172;2023-05-17T13:19:49;4.38;;;2.00;;
28296;SDS011;62078;49.366;8.172;2023-05-17T13:22:15;5.78;;;2.45;;
28296;SDS011;62078;49.366;8.172;2023-05-17T13:24:41;5.03;;;2.20;;
28296;SDS011;62078;49.366;8.172;2023-05-17T13:27:09;5.93;;;2.47;;
28296;SDS011;62078;49.366;8.172;2023-05-17T13:29:36;5.40;;;2.25;;
28296;SDS011;62078;49.366;8.172;2023-05-17T13:32:04;6.65;;;2.60;;
28296;SDS011;62078;49.366;8.172;2023-05-17T13:34:30;5.35;;;2.05;;
28296;SDS011;62078;49.366;8.172;2023-05-17T13:36:56;6.55;;;2.10;;
28296;SDS011;62078;49.366;8.172;2023-05-17T13:39:21;5.15;;;2.20;;
28296;SDS011;62078;49.366;8.172;2023-05-17T13:41:47;4.47;;;2.10;;
28296;SDS011;62078;49.366;8.172;2023-05-17T13:44:13;4.97;;;1.90;;
28296;SDS011;62078;49.366;8.172;2023-05-17T13:46:39;5.60;;;2.10;;
28296;SDS011;62078;49.366;8.172;2023-05-17T13:49:05;4.28;;;1.63;;
28296;SDS011;62078;49.366;8.172;2023-05-17T13:51:34;6.47;;;2.17;;
28296;SDS011;62078;49.366;8.172;2023-05-17T13:54:04;5.72;;;2.08;;
28296;SDS011;62078;49.366;8.172;2023-05-17T13:56:31;4.47;;;1.83;;
28296;SDS011;62078;49.366;8.172;2023-05-17T13:58:57;4.07;;;2.10;;
28296;SDS011;62078;49.366;8.172;2023-05-17T14:01:23;5.03;;;2.08;;
28296;SDS011;62078;49.366;8.172;2023-05-17T14:03:49;6.78;;;1.80;;
28296;SDS011;62078;49.366;8.172;2023-05-17T14:06:14;5.00;;;2.17;;
28296;SDS011;62078;49.366;8.172;2023-05-17T14:08:40;9.70;;;2.00;;
28296;SDS011;62078;49.366;8.172;2023-05-17T14:11:06;8.65;;;2.63;;
28296;SDS011;62078;49.366;8.172;2023-05-17T14:13:31;6.60;;;2.13;;
28296;SDS011;62078;49.366;8.172;2023-05-17T14:15:57;7.88;;;2.30;;
28296;SDS011;62078;49.366;8.172;2023-05-17T14:18:23;10.40;;;2.47;;
28296;SDS011;62078;49.366;8.172;2023-05-17T14:20:48;6.35;;;2.50;;
28296;SDS011;62078;49.366;8.172;2023-05-17T14:23:14;9.15;;;2.70;;
28296;SDS011;62078;49.366;8.172;2023-05-17T14:25:40;8.88;;;2.42;;
28296;SDS011;62078;49.366;8.172;2023-05-17T14:28:07;8.32;;;2.10;;
28296;SDS011;62078;49.366;8.172;2023-05-17T14:30:33;9.77;;;2.90;;
28296;SDS011;62078;49.366;8.172;2023-05-17T14:32:59;4.70;;;2.00;;
28296;SDS011;62078;49.366;8.172;2023-05-17T14:35:25;6.13;;;2.50;;
28296;SDS011;62078;49.366;8.172;2023-05-17T14:37:50;8.98;;;2.45;;
28296;SDS011;62078;49.366;8.172;2023-05-17T14:40:16;10.50;;;2.50;;
28296;SDS011;62078;49.366;8.172;2023-05-17T14:42:42;5.70;;;2.05;;
28296;SDS011;62078;49.366;8.172;2023-05-17T14:45:08;8.48;;;2.80;;
28296;SDS011;62078;49.366;8.172;2023-05-17T14:47:34;6.00;;;2.90;;
28296;SDS011;62078;49.366;8.172;2023-05-17T14:50:00;7.65;;;2.55;;
28296;SDS011;62078;49.366;8.172;2023-05-17T14:52:25;5.85;;;2.28;;
28296;SDS011;62078;49.366;8.172;2023-05-17T14:54:52;6.63;;;2.67;;
28296;SDS011;62078;49.366;8.172;2023-05-17T14:57:18;7.95;;;3.33;;
28296;SDS011;62078;49.366;8.172;2023-05-17T14:59:45;7.30;;;2.83;;
28296;SDS011;62078;49.366;8.172;2023-05-17T15:02:11;5.93;;;2.20;;
28296;SDS011;62078;49.366;8.172;2023-05-17T15:04:37;7.35;;;2.83;;
28296;SDS011;62078;49.366;8.172;2023-05-17T15:07:02;4.88;;;2.40;;
28296;SDS011;62078;49.366;8.172;2023-05-17T15:09:28;6.43;;;2.20;;
28296;SDS011;62078;49.366;8.172;2023-05-17T15:11:55;6.93;;;2.70;;
28296;SDS011;62078;49.366;8.172;2023-05-17T15:14:21;7.88;;;2.58;;
28296;SDS011;62078;49.366;8.172;2023-05-17T15:16:48;7.35;;;2.70;;